Attessa IV — ZCTB7 — position and weather

sailwx.info

Track history (hours):
 
Tides and Currents Weather Stations Pressure Air Temp Water Temp Dewpoint Dewpoint Depression Visibility Wind Speed Wind Dir Waves Ship Positions

Attessa IV

Last reported at 2017-Dec-16 11:39 UTC. Time now 2017-Dec-16 18:54 UTC.
Position N 30°46' W 116°60'.

; draft 4.8 m.

Type: Pleasure craft. MMSI: 319630000.

Date/timePositionNaut miles runAvg speedWind from/ knotsBaromVisibWave heightAir tempDewpointWater temp
2017-Dec-16 11:39N 30°46' W 116°60'3 9.9
2017-Dec-16 11:23N 30°49' W 117°01'2010.0
2017-Dec-16 09:21N 31°08' W 117°09'410.2
2017-Dec-16 08:58N 31°11' W 117°10'510.2
2017-Dec-16 08:30N 31°16' W 117°12'6510.0
2017-Dec-16 02:02N 32°17' W 117°39'0 8.9
2017-Dec-16 02:00N 32°17' W 117°39'5 9.4
2017-Dec-16 01:30N 32°21' W 117°41'5 9.4
2017-Dec-16 01:00N 32°26' W 117°43'5 9.6
2017-Dec-16 00:30N 32°30' W 117°45'5 9.9
2017-Dec-16 00:00N 32°35' W 117°47'510.1
2017-Dec-15 23:30N 32°40' W 117°49'510.1
2017-Dec-15 23:00N 32°44' W 117°51'510.0
2017-Dec-15 22:30N 32°49' W 117°53'510.1
2017-Dec-15 22:01N 32°54' W 117°55'510.2
2017-Dec-15 21:30N 32°59' W 117°57'810.2
2017-Dec-15 20:44N 33°06' W 118°00'45 9.1
2017-Dec-15 15:49N 33°42' W 118°33'310.0
2017-Dec-15 15:30N 33°44' W 118°36'5 9.4
2017-Dec-15 15:00N 33°47' W 118°39'510.1
2017-Dec-15 14:30N 33°52' W 118°37'  
Track history (hours):
 
Tides and Currents Weather Stations Pressure Air Temp Water Temp Dewpoint Dewpoint Depression Visibility Wind Speed Wind Dir Waves Ship Positions

Attessa IV

Last reported at 2017-Dec-16 11:39 UTC. Time now 2017-Dec-16 18:54 UTC.
Position N 30°46' W 116°60'.

; draft 4.8 m.

Type: Pleasure craft. MMSI: 319630000.

Date/timePositionNaut miles runAvg speedWind from/ knotsBaromVisibWave heightAir tempDewpointWater temp
2017-Dec-16 11:39N 30°46' W 116°60'3 9.9
2017-Dec-16 11:23N 30°49' W 117°01'2010.0
2017-Dec-16 09:21N 31°08' W 117°09'410.2
2017-Dec-16 08:58N 31°11' W 117°10'510.2
2017-Dec-16 08:30N 31°16' W 117°12'6510.0
2017-Dec-16 02:02N 32°17' W 117°39'0 8.9
2017-Dec-16 02:00N 32°17' W 117°39'5 9.4
2017-Dec-16 01:30N 32°21' W 117°41'5 9.4
2017-Dec-16 01:00N 32°26' W 117°43'5 9.6
2017-Dec-16 00:30N 32°30' W 117°45'5 9.9
2017-Dec-16 00:00N 32°35' W 117°47'510.1
2017-Dec-15 23:30N 32°40' W 117°49'510.1
2017-Dec-15 23:00N 32°44' W 117°51'510.0
2017-Dec-15 22:30N 32°49' W 117°53'510.1
2017-Dec-15 22:01N 32°54' W 117°55'510.2
2017-Dec-15 21:30N 32°59' W 117°57'810.2
2017-Dec-15 20:44N 33°06' W 118°00'45 9.1
2017-Dec-15 15:49N 33°42' W 118°33'310.0
2017-Dec-15 15:30N 33°44' W 118°36'5 9.4
2017-Dec-15 15:00N 33°47' W 118°39'510.1
2017-Dec-15 14:30N 33°52' W 118°37'  

Dump ship's entire track history